Time;durP1;ratioP1;P1;durP2;ratioP2;P2;SDS_P1;SDS_P2;PMS_P1;PMS_P2;Temp;Humidity;BMP_temperature;BMP_pressure;BME280_temperature;BME280_humidity;BME280_pressure;Samples;Min_cycle;Max_cycle;Signal;HPM_P1;HPM_P2
2022/08/11 00:00:07;;;;;;;0.55;0.43;;;17.30;99.90;;;;;;5027159;28;20045;-84
2022/08/11 00:02:49;;;;;;;0.32;0.30;;;17.30;99.90;;;;;;5027702;28;20038;-84
2022/08/11 00:05:21;;;;;;;0.32;0.30;;;17.20;99.90;;;;;;5027552;28;20096;-87
2022/08/11 00:07:53;;;;;;;0.40;0.30;;;17.20;99.90;;;;;;5011958;28;20503;-87
2022/08/11 00:10:24;;;;;;;0.52;0.35;;;17.20;99.90;;;;;;5011294;28;20042;-84
2022/08/11 00:12:59;;;;;;;0.38;0.35;;;17.20;99.90;;;;;;5026952;28;20564;-87
2022/08/11 00:15:38;;;;;;;0.52;0.30;;;17.20;99.90;;;;;;5027512;28;20046;-87
2022/08/11 00:18:05;;;;;;;0.25;0.25;;;17.20;99.90;;;;;;5027030;28;20053;-86
2022/08/11 00:20:38;;;;;;;1.40;0.40;;;17.10;99.90;;;;;;4995090;28;20116;-83
2022/08/11 00:23:12;;;;;;;0.28;0.28;;;17.10;99.90;;;;;;5024657;28;20049;-87
2022/08/11 00:25:45;;;;;;;0.38;0.22;;;17.10;99.90;;;;;;5017416;28;20099;-84
2022/08/11 00:28:32;;;;;;;0.82;0.30;;;17.10;99.90;;;;;;5026648;28;20050;-87
2022/08/11 00:31:05;;;;;;;0.85;0.28;;;17.00;99.90;;;;;;5010989;28;20049;-87
2022/08/11 00:33:45;;;;;;;0.17;0.17;;;17.00;99.90;;;;;;5011232;28;20046;-84
2022/08/11 00:36:15;;;;;;;0.73;0.30;;;17.00;99.90;;;;;;4994632;28;20098;-84
2022/08/11 00:38:44;;;;;;;0.20;0.20;;;17.00;99.90;;;;;;4994881;28;20050;-83
2022/08/11 00:41:27;;;;;;;0.30;0.30;;;16.90;99.90;;;;;;5011306;28;20046;-87
2022/08/11 00:44:09;;;;;;;0.22;0.20;;;16.90;99.90;;;;;;5010968;28;20404;-84
2022/08/11 00:47:00;;;;;;;0.30;0.30;;;16.90;99.90;;;;;;5011401;28;20056;-84
2022/08/11 00:49:50;;;;;;;0.20;0.20;;;16.90;99.90;;;;;;5011114;28;20038;-84
2022/08/11 00:52:49;;;;;;;0.32;0.30;;;16.90;99.90;;;;;;5026936;28;20034;-87
2022/08/11 00:55:25;;;;;;;0.28;0.20;;;16.90;99.90;;;;;;5014148;28;20054;-87
2022/08/11 00:58:16;;;;;;;0.65;0.40;;;16.90;99.90;;;;;;5010589;28;20046;-84
2022/08/11 01:00:54;;;;;;;0.40;0.30;;;16.90;99.90;;;;;;5010516;28;20038;-87
2022/08/11 01:03:39;;;;;;;0.20;0.20;;;16.90;99.90;;;;;;5026730;28;20042;-87
2022/08/11 01:06:24;;;;;;;0.65;0.38;;;16.90;99.90;;;;;;5012794;28;20496;-84
2022/08/11 01:09:33;;;;;;;2.42;0.60;;;16.90;99.90;;;;;;5014357;28;20043;-84
2022/08/11 01:12:06;;;;;;;0.60;0.32;;;16.90;99.90;;;;;;4987468;28;20057;-87
2022/08/11 01:14:57;;;;;;;0.30;0.30;;;16.80;99.90;;;;;;5014778;28;20038;-84
2022/08/11 01:18:01;;;;;;;0.45;0.40;;;16.80;99.90;;;;;;5030961;28;20045;-87
2022/08/11 01:20:49;;;;;;;0.50;0.47;;;16.80;99.90;;;;;;5014455;28;20042;-84
2022/08/11 01:23:15;;;;;;;0.57;0.50;;;16.80;99.90;;;;;;5013941;28;20046;-84
2022/08/11 01:26:10;;;;;;;0.68;0.47;;;16.80;99.90;;;;;;5014751;28;20042;-84
2022/08/11 01:29:09;;;;;;;0.52;0.52;;;16.80;99.90;;;;;;5014456;28;20518;-84
2022/08/11 01:32:02;;;;;;;0.28;0.28;;;16.80;99.90;;;;;;5014764;28;20101;-84
2022/08/11 01:35:02;;;;;;;0.45;0.45;;;16.80;99.90;;;;;;5014190;28;20053;-87
2022/08/11 01:38:03;;;;;;;0.30;0.25;;;16.80;99.90;;;;;;5013987;28;20042;-84
2022/08/11 01:40:56;;;;;;;0.57;0.40;;;16.80;99.90;;;;;;5014129;28;20046;-84
2022/08/11 01:46:52;;;;;;;0.28;0.28;;;16.70;99.90;;;;;;5019952;28;20464;-87
2022/08/11 01:49:41;;;;;;;1.00;0.63;;;16.70;99.90;;;;;;5014560;28;20745;-84
2022/08/11 01:52:20;;;;;;;0.52;0.45;;;16.70;99.90;;;;;;5013732;28;20105;-85
2022/08/11 01:55:20;;;;;;;0.50;0.40;;;16.70;99.90;;;;;;5029764;28;20050;-84
2022/08/11 01:58:18;;;;;;;1.05;0.55;;;16.70;99.90;;;;;;5013726;28;20042;-84
2022/08/11 02:01:01;;;;;;;0.40;0.30;;;16.60;99.90;;;;;;5013927;28;20034;-87
2022/08/11 02:03:38;;;;;;;0.80;0.60;;;16.60;99.90;;;;;;5013979;28;20034;-87
2022/08/11 02:06:53;;;;;;;0.98;0.57;;;16.50;99.90;;;;;;5030223;28;20451;-84
2022/08/11 02:09:31;;;;;;;0.50;0.40;;;16.50;99.90;;;;;;4991068;28;20050;-87
2022/08/11 02:12:09;;;;;;;0.68;0.40;;;16.50;99.90;;;;;;5013780;28;20045;-84
2022/08/11 02:15:01;;;;;;;0.75;0.50;;;16.50;99.90;;;;;;5013371;28;20121;-87
2022/08/11 02:17:46;;;;;;;0.52;0.45;;;16.40;99.90;;;;;;5012738;28;20046;-84
2022/08/11 02:23:40;;;;;;;0.65;0.50;;;16.50;99.90;;;;;;5036324;28;20543;-87
2022/08/11 02:26:18;;;;;;;0.35;0.30;;;16.50;99.90;;;;;;5049134;28;20117;-84
2022/08/11 02:29:17;;;;;;;0.77;0.55;;;16.40;99.90;;;;;;5032555;28;20132;-84
2022/08/11 02:34:58;;;;;;;2.30;0.55;;;16.40;99.90;;;;;;5049098;28;20096;-84
2022/08/11 02:37:55;;;;;;;1.27;0.65;;;16.40;99.90;;;;;;5032340;28;20045;-85
2022/08/11 02:40:39;;;;;;;0.43;0.40;;;16.40;99.90;;;;;;5032492;28;20403;-84
2022/08/11 02:43:36;;;;;;;1.25;0.80;;;16.30;99.90;;;;;;5032291;28;20120;-86
2022/08/11 02:46:23;;;;;;;0.43;0.28;;;16.40;99.90;;;;;;5032989;28;20048;-85
2022/08/11 02:52:35;;;;;;;0.55;0.43;;;16.40;99.90;;;;;;5048202;28;20052;-87
2022/08/11 02:55:12;;;;;;;0.70;0.57;;;16.30;99.90;;;;;;5000617;28;20057;-87
2022/08/11 02:58:28;;;;;;;0.65;0.60;;;16.20;99.90;;;;;;5048763;28;20045;-87
2022/08/11 03:01:27;;;;;;;0.73;0.63;;;16.20;99.90;;;;;;5024764;28;20041;-85
2022/08/11 03:04:05;;;;;;;0.55;0.50;;;16.20;99.90;;;;;;5032203;28;20034;-87
2022/08/11 03:06:48;;;;;;;0.68;0.52;;;16.20;99.90;;;;;;5031817;28;20037;-87
2022/08/11 03:09:42;;;;;;;0.38;0.30;;;16.10;99.90;;;;;;5031721;28;20129;-84
2022/08/11 03:18:25;;;;;;;1.30;0.70;;;16.20;99.90;;;;;;5048603;28;20132;-87
2022/08/11 03:21:36;;;;;;;0.80;0.50;;;16.10;99.90;;;;;;5048466;28;20037;-87
2022/08/11 03:24:11;;;;;;;0.70;0.50;;;16.10;99.90;;;;;;5011273;28;20077;-85
2022/08/11 03:27:02;;;;;;;0.47;0.38;;;16.10;99.90;;;;;;5048521;28;20038;-87
2022/08/11 03:29:39;;;;;;;0.47;0.47;;;16.10;99.90;;;;;;5031246;28;20045;-87
2022/08/11 03:32:09;;;;;;;0.75;0.55;;;16.10;99.90;;;;;;5031701;28;20050;-87
2022/08/11 03:34:40;;;;;;;0.85;0.60;;;16.10;99.90;;;;;;5031141;28;20038;-85
2022/08/11 03:37:50;;;;;;;0.40;0.30;;;16.00;99.90;;;;;;5031791;28;20394;-87
2022/08/11 03:44:06;;;;;;;0.30;0.25;;;16.00;99.90;;;;;;5047645;28;20053;-85
2022/08/11 03:47:01;;;;;;;0.43;0.43;;;15.90;99.90;;;;;;5031070;28;20088;-87
2022/08/11 03:50:02;;;;;;;0.82;0.63;;;16.00;99.90;;;;;;5031049;28;20052;-85
2022/08/11 03:52:31;;;;;;;0.50;0.43;;;15.90;99.90;;;;;;5030202;28;20046;-86
2022/08/11 03:55:29;;;;;;;0.35;0.30;;;15.90;99.90;;;;;;5014816;28;20435;-85
2022/08/11 03:58:28;;;;;;;0.82;0.52;;;15.90;99.90;;;;;;5014588;28;20052;-87
2022/08/11 04:01:27;;;;;;;0.52;0.50;;;15.90;99.90;;;;;;5014712;28;20072;-84
2022/08/11 04:04:08;;;;;;;0.38;0.38;;;15.80;99.90;;;;;;5014456;28;20034;-87
2022/08/11 04:07:26;;;;;;;0.65;0.50;;;15.80;99.90;;;;;;5014228;28;20034;-87
2022/08/11 04:10:30;;;;;;;0.47;0.40;;;15.80;99.90;;;;;;5014231;28;20038;-84
2022/08/11 04:13:54;;;;;;;0.35;0.35;;;15.70;99.90;;;;;;5014985;28;20053;-84
2022/08/11 04:16:42;;;;;;;0.55;0.40;;;15.70;99.90;;;;;;4977927;28;20522;-87
2022/08/11 04:19:27;;;;;;;1.20;0.70;;;15.70;99.90;;;;;;5014516;28;20107;-85
2022/08/11 04:22:32;;;;;;;0.93;0.52;;;15.70;99.90;;;;;;5030363;28;20462;-86
2022/08/11 04:25:27;;;;;;;1.20;0.60;;;15.70;99.90;;;;;;5014135;28;20053;-84
2022/08/11 04:28:06;;;;;;;0.73;0.57;;;15.60;99.90;;;;;;5014533;28;20483;-84
2022/08/11 04:31:01;;;;;;;0.77;0.43;;;15.60;99.90;;;;;;5014607;28;20038;-85
2022/08/11 04:34:05;;;;;;;1.00;0.65;;;15.60;99.90;;;;;;5030286;28;20037;-87
2022/08/11 04:40:23;;;;;;;0.90;0.60;;;15.60;99.90;;;;;;4932850;29;20551;-84
2022/08/11 04:43:27;;;;;;;0.80;0.43;;;15.60;99.90;;;;;;5013744;28;20057;-85
2022/08/11 04:46:31;;;;;;;0.25;0.17;;;15.60;99.90;;;;;;5014289;28;20095;-84
2022/08/11 05:02:30;;;;;;;0.80;0.40;;;15.70;99.90;;;;;;5029937;28;20552;-84
2022/08/11 05:05:30;;;;;;;0.43;0.38;;;15.80;99.90;;;;;;5030138;28;20041;-84
2022/08/11 05:08:42;;;;;;;0.30;0.30;;;15.80;99.90;;;;;;5029943;28;20503;-85
2022/08/11 05:11:37;;;;;;;0.40;0.40;;;15.80;99.90;;;;;;5010715;28;20046;-87
2022/08/11 05:37:12;;;;;;;0.40;0.40;;;16.30;99.90;;;;;;5029519;28;20042;-85
2022/08/11 05:56:51;;;;;;;0.30;0.20;;;16.60;99.90;;;;;;5035737;28;20406;-84
2022/08/11 05:59:20;;;;;;;0.35;0.35;;;16.60;99.90;;;;;;5051613;28;20034;-87
2022/08/11 06:01:47;;;;;;;0.63;0.43;;;16.70;99.90;;;;;;5031556;28;20048;-86
2022/08/11 06:04:24;;;;;;;0.57;0.40;;;16.70;99.90;;;;;;5032704;28;20069;-87
2022/08/11 06:06:56;;;;;;;0.88;0.63;;;16.80;99.90;;;;;;5033142;28;20048;-87
2022/08/11 06:09:48;;;;;;;0.22;0.22;;;16.90;99.90;;;;;;5031149;28;21014;-84
2022/08/11 06:12:26;;;;;;;0.20;0.20;;;17.00;99.90;;;;;;5032504;28;20096;-87
2022/08/11 06:14:55;;;;;;;0.52;0.30;;;17.00;99.90;;;;;;5032950;28;20049;-87
2022/08/11 06:17:27;;;;;;;0.70;0.35;;;17.10;99.90;;;;;;5017206;28;20034;-87
2022/08/11 06:20:08;;;;;;;0.30;0.30;;;17.10;99.90;;;;;;5029191;28;20046;-85
2022/08/11 06:22:35;;;;;;;0.20;0.20;;;17.20;99.90;;;;;;5033279;28;20041;-87
2022/08/11 06:25:04;;;;;;;0.38;0.38;;;17.30;99.90;;;;;;5016823;28;20041;-86
2022/08/11 06:27:34;;;;;;;0.32;0.25;;;17.30;99.90;;;;;;5029508;28;20049;-84
2022/08/11 06:30:12;;;;;;;0.40;0.40;;;17.40;99.90;;;;;;5044701;28;20128;-87
2022/08/11 06:32:43;;;;;;;0.20;0.20;;;17.40;99.90;;;;;;5052777;28;20045;-84
2022/08/11 06:35:24;;;;;;;0.40;0.30;;;17.50;99.90;;;;;;5052198;28;20041;-87
2022/08/11 06:37:59;;;;;;;0.75;0.60;;;17.60;99.90;;;;;;5052158;28;20506;-87
2022/08/11 06:44:01;;;;;;;0.95;0.52;;;17.80;99.90;;;;;;5068498;28;20509;-87
2022/08/11 06:46:38;;;;;;;0.45;0.43;;;17.90;99.90;;;;;;5052456;28;20041;-87
2022/08/11 06:51:10;;;;;;;0.35;0.30;;;18.00;99.90;;;;;;5051740;28;20037;-87
2022/08/11 06:52:09;;;;;;;0.68;0.50;;;18.10;99.90;;;;;;5068640;28;20560;-87
2022/08/11 06:54:40;;;;;;;0.32;0.32;;;18.30;99.90;;;;;;5051572;28;20061;-87
2022/08/11 07:02:50;;;;;;;0.85;0.57;;;18.60;99.90;;;;;;5048529;28;20042;-87
2022/08/11 07:05:42;;;;;;;0.68;0.50;;;18.70;99.90;;;;;;5028446;28;20156;-85
2022/08/11 07:17:39;;;;;;;1.30;0.77;;;19.20;99.90;;;;;;5047837;28;20065;-82
2022/08/11 07:28:54;;;;;;;0.70;0.50;;;19.80;99.90;;;;;;5033946;28;20041;-84
2022/08/11 07:32:02;;;;;;;0.73;0.47;;;20.00;99.90;;;;;;5011854;28;20089;-84
2022/08/11 07:34:35;;;;;;;0.43;0.40;;;20.10;99.90;;;;;;4972768;28;20053;-84
2022/08/11 07:37:16;;;;;;;0.43;0.38;;;20.30;99.90;;;;;;5038305;28;20073;-86
2022/08/11 07:39:48;;;;;;;0.63;0.40;;;20.50;99.90;;;;;;5011681;28;20047;-88
2022/08/11 07:42:25;;;;;;;0.38;0.35;;;20.60;99.90;;;;;;5012060;28;20038;-85
2022/08/11 07:53:12;;;;;;;;;;;21.30;99.90;;;;;;5013616;28;20141;-84
2022/08/11 07:55:39;;;;;;;0.20;0.20;;;21.40;99.90;;;;;;5041888;28;19917;-85
2022/08/11 08:17:51;;;;;;;0.28;0.22;;;22.80;99.90;;;;;;5050079;28;20105;-89
2022/08/11 08:20:21;;;;;;;0.35;0.30;;;22.90;99.90;;;;;;5015447;28;20045;-86
2022/08/11 08:22:57;;;;;;;0.40;0.40;;;23.10;99.90;;;;;;5046948;28;20863;-87
2022/08/11 08:25:34;;;;;;;0.30;0.30;;;23.30;99.90;;;;;;5030316;28;20038;-88
2022/08/11 08:28:06;;;;;;;0.47;0.25;;;23.50;99.90;;;;;;5030614;28;20042;-85
2022/08/11 08:30:49;;;;;;;0.30;0.30;;;23.70;99.90;;;;;;5030683;28;20045;-89
2022/08/11 08:33:23;;;;;;;0.28;0.28;;;23.80;99.90;;;;;;5030847;28;20041;-87
2022/08/11 08:36:15;;;;;;;0.60;0.40;;;24.00;99.90;;;;;;5031139;28;20046;-85
2022/08/11 08:38:47;;;;;;;0.30;0.30;;;24.10;99.90;;;;;;5026904;28;20310;-88
2022/08/11 08:41:19;;;;;;;0.43;0.20;;;24.20;99.90;;;;;;5023553;28;20038;-85
2022/08/11 08:43:50;;;;;;;0.30;0.30;;;24.30;99.90;;;;;;5026323;28;20040;-84
2022/08/11 08:46:26;;;;;;;0.52;0.30;;;24.40;99.90;;;;;;5025148;28;20120;-85
2022/08/11 08:48:54;;;;;;;0.20;0.20;;;24.50;99.90;;;;;;5030527;28;20064;-85
2022/08/11 08:51:34;;;;;;;0.32;0.30;;;24.70;99.90;;;;;;5026486;28;20053;-85
2022/08/11 08:54:16;;;;;;;0.28;0.25;;;24.80;99.90;;;;;;5029640;28;20340;-88
2022/08/11 08:56:44;;;;;;;0.20;0.20;;;24.90;99.90;;;;;;5030502;28;20568;-86
2022/08/11 08:59:15;;;;;;;0.40;0.38;;;25.00;99.90;;;;;;5029774;28;20084;-85
2022/08/11 09:01:52;;;;;;;0.30;0.30;;;25.10;99.90;;;;;;5014095;28;20045;-84
2022/08/11 09:04:20;;;;;;;0.20;0.20;;;25.30;99.90;;;;;;5029720;28;20496;-85
2022/08/11 09:06:47;;;;;;;0.30;0.30;;;25.50;99.90;;;;;;5029935;28;20121;-86
2022/08/11 09:09:15;;;;;;;0.22;0.22;;;25.50;99.90;;;;;;5013585;28;20100;-85
2022/08/11 09:11:49;;;;;;;0.20;0.20;;;25.70;99.90;;;;;;4997483;28;20450;-89
2022/08/11 09:14:22;;;;;;;0.47;0.40;;;25.80;99.90;;;;;;5014675;28;20085;-85
2022/08/11 09:16:51;;;;;;;1.23;0.30;;;26.00;99.90;;;;;;5030397;28;20080;-85
2022/08/11 09:19:20;;;;;;;0.43;0.30;;;26.10;99.90;;;;;;5014054;28;20078;-85
2022/08/11 09:26:58;;;;;;;0.20;0.20;;;26.30;99.90;;;;;;5030029;28;20048;-90
2022/08/11 09:27:26;;;;;;;0.65;0.38;;;26.60;99.90;;;;;;5047066;28;20042;-85
2022/08/11 09:29:53;;;;;;;0.20;0.20;;;26.70;99.90;;;;;;5001380;28;20112;-84
2022/08/11 09:32:22;;;;;;;0.32;0.30;;;26.80;99.90;;;;;;5049872;28;20081;-89
2022/08/11 09:34:50;;;;;;;0.20;0.20;;;27.00;99.90;;;;;;5017978;28;20049;-89
2022/08/11 09:45:43;;;;;;;0.20;0.20;;;27.50;99.90;;;;;;5035833;28;20407;-85
2022/08/11 09:48:11;;;;;;;0.40;0.30;;;27.60;99.90;;;;;;5033460;28;20042;-86
2022/08/11 09:50:39;;;;;;;0.20;0.20;;;27.70;99.30;;;;;;5017254;28;20040;-86
2022/08/11 09:53:05;;;;;;;0.10;0.10;;;27.80;99.40;;;;;;5033272;28;20029;-87
2022/08/11 09:55:33;;;;;;;0.47;0.35;;;27.90;99.70;;;;;;4985589;28;20581;-86
2022/08/11 09:58:12;;;;;;;0.40;0.35;;;27.90;96.90;;;;;;4985274;28;20088;-87
2022/08/11 10:00:39;;;;;;;0.20;0.20;;;28.10;99.90;;;;;;5002791;28;20675;-85
2022/08/11 10:03:13;;;;;;;0.30;0.30;;;28.20;99.10;;;;;;5016960;28;20073;-88
2022/08/11 10:08:34;;;;;;;0.30;0.30;;;28.40;95.50;;;;;;5028244;28;20073;-85
2022/08/11 10:11:01;;;;;;;0.20;0.20;;;28.40;98.00;;;;;;5017069;28;20041;-84
2022/08/11 10:15:32;;;;;;;0.25;0.25;;;28.50;96.40;;;;;;5000497;28;20399;-87
2022/08/11 10:16:28;;;;;;;0.32;0.28;;;28.50;91.40;;;;;;5032942;28;20045;-84
2022/08/11 10:18:58;;;;;;;0.22;0.22;;;28.60;93.10;;;;;;5017493;28;20052;-88
2022/08/11 10:26:48;;;;;;;0.25;0.25;;;28.70;94.30;;;;;;5016638;28;20120;-84
2022/08/11 10:27:17;;;;;;;0.30;0.30;;;28.90;93.90;;;;;;5005767;28;20049;-89
2022/08/11 10:35:18;;;;;;;0.20;0.20;;;29.10;94.00;;;;;;5018633;28;20038;-85
2022/08/11 10:37:46;;;;;;;0.35;0.35;;;29.20;92.50;;;;;;5015146;28;20050;-86
2022/08/11 10:40:16;;;;;;;0.25;0.25;;;29.30;93.10;;;;;;4999190;28;20036;-85
2022/08/11 10:43:02;;;;;;;0.30;0.30;;;29.40;92.40;;;;;;5016039;28;20494;-85
2022/08/11 10:48:37;;;;;;;0.35;0.25;;;29.40;86.40;;;;;;4964489;28;20151;-90
2022/08/11 10:51:12;;;;;;;0.20;0.20;;;29.50;90.00;;;;;;5014287;28;20046;-87
2022/08/11 10:59:27;;;;;;;0.20;0.20;;;29.60;90.70;;;;;;5028979;28;20046;-85
2022/08/11 11:01:54;;;;;;;0.40;0.32;;;29.60;91.10;;;;;;5013235;28;20045;-89
2022/08/11 11:04:59;;;;;;;0.30;0.30;;;29.70;90.20;;;;;;5012591;28;20085;-86
2022/08/11 11:07:35;;;;;;;0.20;0.10;;;29.70;90.40;;;;;;5029904;28;20046;-90
2022/08/11 11:10:05;;;;;;;0.45;0.30;;;29.80;91.60;;;;;;5016683;28;20046;-85
2022/08/11 11:18:22;;;;;;;0.30;0.30;;;29.90;86.60;;;;;;5035071;28;20084;-85
2022/08/11 11:20:52;;;;;;;0.37;0.33;;;29.90;87.40;;;;;;5049061;28;20052;-89
2022/08/11 11:23:38;;;;;;;0.30;0.30;;;29.90;88.10;;;;;;5032723;28;20045;-89
2022/08/11 11:26:33;;;;;;;0.38;0.30;;;29.90;88.40;;;;;;5028516;28;20092;-89
2022/08/11 11:29:37;;;;;;;0.25;0.25;;;29.90;83.40;;;;;;5039464;28;20042;-85
2022/08/11 11:32:03;;;;;;;0.13;0.13;;;29.90;84.00;;;;;;5030886;28;20453;-85
2022/08/11 11:34:36;;;;;;;0.20;0.20;;;30.00;88.20;;;;;;5031573;28;20129;-86
2022/08/11 11:37:03;;;;;;;0.30;0.30;;;30.00;88.50;;;;;;5031104;28;20187;-85
2022/08/11 11:39:31;;;;;;;0.30;0.30;;;30.00;83.10;;;;;;5031793;28;20492;-85
2022/08/11 11:42:06;;;;;;;0.47;0.38;;;30.00;85.30;;;;;;5014866;28;20033;-89
2022/08/11 11:44:36;;;;;;;0.30;0.30;;;30.00;80.40;;;;;;5031300;28;20034;-89
2022/08/11 11:47:04;;;;;;;0.25;0.25;;;30.10;87.90;;;;;;5015727;28;20044;-86
2022/08/11 11:49:31;;;;;;;0.50;0.30;;;30.10;84.60;;;;;;5014254;28;20049;-89
2022/08/11 11:51:59;;;;;;;0.90;0.40;;;30.10;83.20;;;;;;5031764;28;20052;-89
2022/08/11 11:54:32;;;;;;;0.22;0.22;;;30.10;82.20;;;;;;5014891;28;20083;-85
2022/08/11 12:01:14;;;;;;;0.30;0.30;;;30.20;81.60;;;;;;5031412;28;20048;-88
2022/08/11 12:02:36;;;;;;;0.20;0.20;;;30.20;84.60;;;;;;5033713;28;20049;-85
2022/08/11 12:05:04;;;;;;;0.30;0.30;;;30.20;84.10;;;;;;5014879;28;20426;-89
2022/08/11 12:10:17;;;;;;;0.20;0.20;;;30.30;84.20;;;;;;5047140;28;20038;-85
2022/08/11 12:15:31;;;;;;;0.20;0.20;;;30.40;84.30;;;;;;5024928;28;20518;-85
2022/08/11 12:17:59;;;;;;;0.55;0.30;;;30.40;84.40;;;;;;4998778;28;20128;-86
2022/08/11 12:20:26;;;;;;;0.30;0.30;;;30.40;82.00;;;;;;5031466;28;20514;-90
2022/08/11 12:28:29;;;;;;;0.30;0.30;;;30.20;81.90;;;;;;5046906;28;20092;-85
2022/08/11 12:30:57;;;;;;;0.22;0.22;;;30.40;82.00;;;;;;5014616;28;20038;-85
2022/08/11 12:33:24;;;;;;;0.30;0.20;;;30.40;83.10;;;;;;5030531;28;20042;-89
2022/08/11 12:35:58;;;;;;;0.35;0.30;;;30.40;83.40;;;;;;4998679;28;20042;-89
2022/08/11 12:38:25;;;;;;;;;;;30.40;79.90;;;;;;4998619;28;20034;-85
2022/08/11 12:46:33;;;;;;;0.22;0.22;;;30.30;80.00;;;;;;5038105;28;20049;-91
2022/08/11 12:52:03;;;;;;;0.10;0.10;;;30.40;80.00;;;;;;5046029;28;20136;-89
2022/08/11 12:54:58;;;;;;;0.30;0.30;;;30.40;81.20;;;;;;5027586;28;20089;-89
2022/08/11 13:05:59;;;;;;;0.55;0.28;;;30.40;80.10;;;;;;5053576;28;20073;-89
2022/08/11 13:08:28;;;;;;;0.50;0.30;;;30.40;79.10;;;;;;5037335;28;20053;-87
2022/08/11 13:13:45;;;;;;;0.28;0.28;;;30.30;77.10;;;;;;5052870;28;20045;-87
2022/08/11 13:16:13;;;;;;;0.90;0.25;;;30.30;78.20;;;;;;5036812;28;20042;-89
2022/08/11 13:18:41;;;;;;;0.38;0.28;;;30.20;77.90;;;;;;5020447;28;20046;-86
2022/08/11 13:21:12;;;;;;;0.22;0.22;;;30.30;78.80;;;;;;5004036;28;20507;-86
2022/08/11 13:23:40;;;;;;;0.22;0.22;;;30.30;78.20;;;;;;5020633;28;20107;-87
2022/08/11 13:26:07;;;;;;;1.00;0.20;;;30.30;78.70;;;;;;5033699;28;20034;-89
2022/08/11 13:28:36;;;;;;;0.63;0.20;;;30.20;73.50;;;;;;5001566;28;20147;-86
2022/08/11 13:31:10;;;;;;;0.30;0.30;;;30.20;76.40;;;;;;5028302;28;20052;-89
2022/08/11 13:33:43;;;;;;;0.85;0.30;;;30.30;74.50;;;;;;5035419;28;20077;-86
2022/08/11 13:36:11;;;;;;;0.40;0.30;;;30.20;72.70;;;;;;5036703;28;20045;-86
2022/08/11 13:38:42;;;;;;;0.30;0.30;;;30.30;75.20;;;;;;5006482;28;20046;-86
2022/08/11 13:43:56;;;;;;;0.15;0.15;;;30.30;72.40;;;;;;5005581;28;20109;-87
2022/08/11 13:46:24;;;;;;;0.38;0.30;;;30.30;75.10;;;;;;5012991;28;20061;-86
2022/08/11 13:48:54;;;;;;;0.30;0.30;;;30.20;72.30;;;;;;5004581;28;20080;-89
2022/08/11 13:51:32;;;;;;;0.55;0.35;;;30.20;76.70;;;;;;5036358;28;20147;-85
2022/08/11 13:54:01;;;;;;;0.13;0.13;;;30.20;75.50;;;;;;5021486;28;20061;-91
2022/08/11 13:56:28;;;;;;;0.20;0.20;;;30.20;75.90;;;;;;5036594;28;20064;-85
2022/08/11 13:58:56;;;;;;;0.30;0.25;;;30.20;76.50;;;;;;5035400;28;20519;-93
2022/08/11 14:01:29;;;;;;;0.20;0.20;;;30.10;75.20;;;;;;5006940;28;20033;-96
2022/08/11 14:04:08;;;;;;;0.30;0.30;;;30.10;76.40;;;;;;5056127;28;20117;-88
2022/08/11 14:06:39;;;;;;;0.22;0.22;;;30.20;76.60;;;;;;5036653;28;20038;-87
2022/08/11 14:09:11;;;;;;;0.20;0.20;;;30.10;76.30;;;;;;5037383;28;20475;-86
2022/08/11 14:14:32;;;;;;;0.20;0.20;;;29.90;76.40;;;;;;5029743;28;20081;-91
2022/08/11 14:17:07;;;;;;;0.28;0.20;;;29.90;76.40;;;;;;5032124;28;20045;-86
2022/08/11 14:19:40;;;;;;;0.25;0.20;;;29.90;78.70;;;;;;5032507;28;20042;-86
2022/08/11 14:22:07;;;;;;;0.20;0.20;;;29.90;77.90;;;;;;5033544;28;20038;-89
2022/08/11 14:24:42;;;;;;;0.20;0.20;;;29.80;77.30;;;;;;5017555;28;20034;-90
2022/08/11 14:27:11;;;;;;;0.20;0.20;;;29.80;77.10;;;;;;5033075;28;20034;-86
2022/08/11 14:29:40;;;;;;;0.20;0.20;;;29.80;78.40;;;;;;5033073;28;20042;-86
2022/08/11 14:32:10;;;;;;;0.40;0.20;;;29.80;78.20;;;;;;5048507;28;20398;-86
2022/08/11 14:34:42;;;;;;;0.47;0.38;;;29.70;78.00;;;;;;5016221;28;20042;-86
2022/08/11 14:37:12;;;;;;;0.20;0.20;;;29.60;78.00;;;;;;5004093;28;20442;-87
2022/08/11 14:39:49;;;;;;;0.20;0.20;;;29.60;78.80;;;;;;5012845;28;20534;-91
2022/08/11 14:48:00;;;;;;;0.20;0.20;;;29.60;76.90;;;;;;5029433;28;20563;-87
2022/08/11 14:50:30;;;;;;;0.63;0.45;;;29.60;75.90;;;;;;5012729;28;20567;-87
2022/08/11 14:53:08;;;;;;;0.30;0.30;;;29.50;77.10;;;;;;5028567;28;20053;-86
2022/08/11 14:58:25;;;;;;;0.30;0.30;;;29.60;78.10;;;;;;5032329;28;20108;-87
2022/08/11 15:00:55;;;;;;;0.20;0.20;;;29.60;78.10;;;;;;4999665;28;20038;-93
2022/08/11 15:03:24;;;;;;;0.22;0.22;;;29.50;77.90;;;;;;5031502;28;20038;-86
2022/08/11 15:05:55;;;;;;;0.47;0.47;;;29.50;77.80;;;;;;5000092;28;20081;-86
2022/08/11 15:14:01;;;;;;;0.38;0.30;;;29.30;78.10;;;;;;5032394;28;20481;-92
2022/08/11 15:19:19;;;;;;;0.30;0.30;;;29.30;78.90;;;;;;5018353;28;20052;-85
2022/08/11 15:24:36;;;;;;;0.38;0.30;;;29.10;78.00;;;;;;5009628;28;20048;-91
2022/08/11 15:38:24;;;;;;;0.38;0.30;;;29.00;79.50;;;;;;5012376;28;20526;-86
2022/08/11 15:46:47;;;;;;;0.20;0.20;;;29.00;79.60;;;;;;5029348;28;20077;-87
2022/08/11 15:49:22;;;;;;;0.40;0.40;;;28.90;80.70;;;;;;5008168;28;20046;-88
2022/08/11 15:52:02;;;;;;;0.20;0.20;;;28.90;81.40;;;;;;5011882;28;20038;-88
2022/08/11 15:54:31;;;;;;;0.52;0.47;;;28.80;80.70;;;;;;5024420;28;20061;-86
2022/08/11 15:57:01;;;;;;;0.30;0.30;;;28.80;79.30;;;;;;5031103;28;20099;-86
2022/08/11 16:05:13;;;;;;;0.45;0.30;;;28.90;79.00;;;;;;5047530;28;20042;-87
2022/08/11 16:07:47;;;;;;;0.40;0.30;;;28.80;79.50;;;;;;5030773;28;20033;-90
2022/08/11 16:10:22;;;;;;;0.30;0.30;;;28.80;79.00;;;;;;5015066;28;20073;-87
2022/08/11 16:16:13;;;;;;;0.55;0.28;;;28.70;79.40;;;;;;5036811;28;20037;-85
2022/08/11 16:18:56;;;;;;;0.20;0.20;;;28.70;80.10;;;;;;5014523;28;20383;-85
2022/08/11 16:21:26;;;;;;;0.25;0.25;;;28.60;79.20;;;;;;5030710;28;20406;-86
2022/08/11 16:23:57;;;;;;;0.40;0.30;;;28.60;78.60;;;;;;5028294;28;20069;-85
2022/08/11 16:26:26;;;;;;;0.45;0.40;;;28.50;79.50;;;;;;5010925;28;20038;-86
2022/08/11 16:28:56;;;;;;;0.30;0.30;;;28.40;80.10;;;;;;5014859;28;20049;-85
2022/08/11 16:31:24;;;;;;;0.40;0.40;;;28.40;79.40;;;;;;5030659;28;20042;-89
2022/08/11 16:33:53;;;;;;;0.30;0.30;;;28.40;79.60;;;;;;5031341;28;20063;-86
2022/08/11 16:39:10;;;;;;;0.30;0.30;;;28.30;80.20;;;;;;5041006;28;20133;-87
2022/08/11 16:47:18;;;;;;;0.35;0.28;;;28.20;80.30;;;;;;5047115;28;20487;-94
2022/08/11 16:49:50;;;;;;;0.30;0.22;;;28.20;80.10;;;;;;5046761;28;20046;-91
2022/08/11 16:52:18;;;;;;;0.13;0.13;;;28.10;79.80;;;;;;5031092;28;20487;-91
2022/08/11 16:54:46;;;;;;;0.38;0.30;;;28.10;79.90;;;;;;5030354;28;20057;-88
2022/08/11 17:00:13;;;;;;;0.50;0.30;;;28.00;79.10;;;;;;5046572;28;20061;-86
2022/08/11 17:14:27;;;;;;;0.20;0.20;;;27.70;81.30;;;;;;5047023;28;20045;-84
2022/08/11 17:16:57;;;;;;;0.45;0.43;;;27.60;81.20;;;;;;5030447;28;20030;-85
2022/08/11 17:19:30;;;;;;;0.22;0.20;;;27.60;81.70;;;;;;5029631;28;20044;-89
2022/08/11 17:24:45;;;;;;;0.30;0.30;;;27.50;82.00;;;;;;5046120;28;20088;-89
2022/08/11 17:27:15;;;;;;;0.40;0.40;;;27.50;82.40;;;;;;5014230;28;20502;-89
2022/08/11 17:29:53;;;;;;;0.30;0.28;;;27.40;83.10;;;;;;5014164;28;20105;-85
2022/08/11 17:35:29;;;;;;;0.32;0.30;;;27.30;83.60;;;;;;5038770;28;20053;-90
2022/08/11 17:38:07;;;;;;;1.23;0.30;;;27.20;83.70;;;;;;5026762;28;20046;-85
2022/08/11 17:48:24;;;;;;;0.47;0.30;;;27.10;84.00;;;;;;5020731;28;20124;-85
2022/08/11 17:49:03;;;;;;;7.55;0.45;;;26.90;84.60;;;;;;5030138;28;20487;-89
2022/08/11 17:59:54;;;;;;;0.70;0.50;;;26.70;85.10;;;;;;5019428;28;20511;-86
2022/08/11 18:05:19;;;;;;;0.30;0.30;;;26.50;85.80;;;;;;5033219;28;20132;-87
